Monday, July 6, 2015, 8:34 PM EDT

KGED, Georgetown Sussex Co Airport

Location: Georgetown, DE, United States Lat: 38.683
Local Time: 8:34 PM EDT ( 0:34 GMT) Lon: -75.367
Time Zone: US/Eastern Elev: 52 ft

Show me the last for .
Show Decoded

2015-07-06 19:54 METAR KGED 062354Z AUTO 16008KT 10SM CLR 27/23 A3006 RMK AO2 SLP179 60105
                 T02670233 10311 20233 55010 =
2015-07-06 18:54 METAR KGED 062254Z AUTO 10SM FEW026 SCT033 SCT042 28/24 A3006 RMK AO2 SLP177
                 T02780239 =
2015-07-06 17:54 METAR KGED 062154Z AUTO 12005KT 10SM CLR 27/23 A3007 RMK AO2 WSHFT 2041 RAE10
                 TSE26 SLP181 P0007 T02670233 =
2015-07-06 17:46 METAR KGED 062146Z AUTO 11005KT 10SM CLR 27/23 A3007 RMK AO2 WSHFT 2041 LTG DSNT
                 N RAE10 TSE26 P0007 T02670233 =
2015-07-06 17:32 METAR KGED 062132Z AUTO 16005KT 10SM VCTS CLR 27/23 A3008 RMK AO2 WSHFT 2041 LTG
                 DSNT N AND NE RAE10 TSE26 P0007 T02670228 =
2015-07-06 17:12 METAR KGED 062112Z AUTO 17007KT 10SM TS SCT013 SCT090 27/22 A3007 RMK AO2 WSHFT
                 2041 LTG DSNT N RAE10 P0007 T02670217 =
2015-07-06 17:05 METAR KGED 062105Z AUTO 13005KT 2SM -TSRA SCT015 BKN032 BKN045 26/22 A3007 RMK
                 AO2 WSHFT 2041 LTG DSNT N P0007 T02560222 =
2015-07-06 16:58 METAR KGED 062058Z AUTO 10011G18KT 1/4SM +TSRA FG BKN015 BKN033 OVC040 24/22
                 A3008 RMK AO2 WSHFT 2041 P0007 T02390222 =
2015-07-06 16:54 METAR KGED 062054Z AUTO 12012G29KT 1/4SM +TSRA FG BKN013 BKN033 OVC040 23/22
                 A3009 RMK AO2 PK WND 21029/2046 WSHFT 2040 RAB29 TSB30 SLP190 P0098 60098
                 T02330222 55005 =
2015-07-06 16:51 METAR KGED 062051Z AUTO 17014G29KT 1/4SM +TSRA FG BKN013 BKN033 OVC047 24/22
                 A3010 RMK AO2 PK WND 21029/2046 WSHFT 2035 RAB29 TSB30 P0083 =
2015-07-06 16:46 METAR KGED 062046Z AUTO 22019G29KT 1/4SM +TSRA FG SCT017 BKN040 OVC080 24/23
                 A3010 RMK AO2 PK WND 21029/2046 RAB29 TSB30 PRESRR P0053 T02440228 =
2015-07-06 16:38 METAR KGED 062038Z AUTO 27015G23KT 1SM +TSRA FEW023 SCT040 BKN049 27/23 A3008
                 RMK AO2 LTG DSNT S RAB29 TSB30 P0015 T02720233 =
2015-07-06 16:36 METAR KGED 062036Z AUTO 23014KT 2SM TSRA SCT040 BKN080 28/23 A3008 RMK AO2 LTG
                 DSNT S RAB29 TSB30 P0010 T02830228 =
2015-07-06 16:24 METAR KGED 062024Z AUTO 13006KT 10SM VCTS SCT080 SCT095 30/21 A3007 RMK AO2 LTG
                 DSNT S AND SW T03000211 =
2015-07-06 15:54 METAR KGED 061954Z AUTO 16007KT 10SM FEW039 SCT050 31/22 A3008 RMK AO2 LTG DSNT
                 S SLP184 T03060217 =
2015-07-06 13:54 METAR KGED 061754Z AUTO 17007KT 10SM FEW036 30/22 A3011 RMK AO2 SLP194 T03000217
                 10300 20239 58015 =
2015-07-06 12:54 METAR KGED 061654Z AUTO 17006KT 10SM SCT033 29/22 A3013 RMK AO2 SLP202 T02940217
                 =
2015-07-06 11:54 METAR KGED 061554Z AUTO 22008KT 10SM FEW026 28/21 A3014 RMK AO2 SLP205 T02830211
                 =
2015-07-06 10:54 METAR KGED 061454Z AUTO 18008KT 10SM SCT022 27/22 A3015 RMK AO2 SLP209 T02720217
                 51006 =
2015-07-06 08:54 METAR KGED 061254Z AUTO 17007KT 10SM CLR 26/22 A3014 RMK AO2 SLP206 T02610222 =
2015-07-06 07:54 METAR KGED 061154Z AUTO 16006KT 10SM CLR 24/22 A3013 RMK AO2 SLP203 60000
                 T02390222 10239 20217 52005 =
2015-07-06 06:54 METAR KGED 061054Z AUTO 12003KT 8SM FEW049 23/22 A3012 RMK AO2 SLP198 T02280217
                 =
2015-07-06 05:54 METAR KGED 060954Z AUTO 13003KT 6SM BR CLR 22/22 A3013 RMK AO2 SLP203 T02220217
                 =
2015-07-06 04:54 METAR KGED 060854Z AUTO 10004KT 7SM SCT110 22/22 A3012 RMK AO2 RAB0758E11 SLP198
                 P0000 60000 T02220217 58004 =
2015-07-06 03:54 METAR KGED 060754Z AUTO 00000KT 8SM BKN120 23/22 A3013 RMK AO2 SLP202 T02280217
                 =
2015-07-06 02:54 METAR KGED 060654Z AUTO 00000KT 8SM BKN110 22/21 A3014 RMK AO2 SLP205 T02220211
                 =
2015-07-06 00:54 METAR KGED 060454Z AUTO 00000KT 8SM FEW120 22/21 A3014 RMK AO2 SLP205 T02220211
                 402890189 =
2015-07-05 23:54 METAR KGED 060354Z AUTO 00000KT 7SM CLR 22/21 A3015 RMK AO2 SLP210 T02220211 =
2015-07-05 22:54 METAR KGED 060254Z AUTO 13003KT 9SM CLR 22/21 A3016 RMK AO2 SLP212 T02220211
                 51009 =
2015-07-05 21:54 METAR KGED 060154Z AUTO 13004KT 10SM CLR 22/21 A3015 RMK AO2 SLP209 T02220206 =

Support USWX by starting your Amazon purchase here.